createdAt,value
2019-05-03T00:00:04.459Z,16.3
2019-05-03T00:15:04.283Z,16.3
2019-05-03T00:30:04.736Z,16.2
2019-05-03T00:45:04.981Z,16.3
2019-05-03T01:00:04.247Z,16.3
2019-05-03T01:15:04.590Z,16.2
2019-05-03T01:30:04.584Z,16
2019-05-03T01:45:04.857Z,16.1
2019-05-03T02:00:04.719Z,16.1
2019-05-03T02:15:04.502Z,16
2019-05-03T02:30:04.411Z,16
2019-05-03T02:45:06.023Z,16.1
2019-05-03T03:00:05.007Z,16
2019-05-03T03:15:06.126Z,15.9
2019-05-03T03:30:07.516Z,15.8
2019-05-03T03:45:05.996Z,15.8
2019-05-03T04:00:05.371Z,15.7
2019-05-03T04:15:05.629Z,15.6
2019-05-03T04:30:05.841Z,15.6
2019-05-03T04:45:05.817Z,15.4
2019-05-03T05:00:05.610Z,15.4
2019-05-03T05:15:05.220Z,15.4
2019-05-03T05:30:04.953Z,15.4
2019-05-03T05:45:04.987Z,15.4
2019-05-03T06:00:04.888Z,15.3
2019-05-03T06:15:04.760Z,15.3
2019-05-03T06:30:04.787Z,15.4
2019-05-03T06:45:08.130Z,15.3
2019-05-03T07:00:05.280Z,15.2
2019-05-03T07:15:05.204Z,15.3
2019-05-03T07:30:04.817Z,15.3
2019-05-03T07:45:04.990Z,15.3
2019-05-03T08:00:04.952Z,15.3
2019-05-03T08:15:05.328Z,15.3
2019-05-03T08:30:04.915Z,15.3
2019-05-03T08:45:04.571Z,15.4
2019-05-03T09:00:05.293Z,15.4
2019-05-03T09:15:04.742Z,15.5
2019-05-03T09:30:05.077Z,15.5
2019-05-03T09:45:05.030Z,15.5
2019-05-03T10:00:04.872Z,15.5
2019-05-03T10:15:06.467Z,15.7
2019-05-03T10:30:12.409Z,15.8
2019-05-03T10:45:04.693Z,15.9
2019-05-03T11:00:05.034Z,15.9
2019-05-03T11:15:04.388Z,16
2019-05-03T11:30:04.900Z,16.2
2019-05-03T11:45:04.850Z,16.3
2019-05-03T12:00:05.323Z,16.3
2019-05-03T12:15:04.759Z,16.3
2019-05-03T12:30:05.055Z,16.2
2019-05-03T12:45:04.702Z,16.3
2019-05-03T13:00:05.003Z,16.4
2019-05-03T13:15:05.110Z,16.6
2019-05-03T13:30:05.165Z,16.6
2019-05-03T13:45:04.889Z,16.7
2019-05-03T14:00:05.683Z,16.6
2019-05-03T14:15:05.626Z,16.4
2019-05-03T14:30:05.385Z,16.3
2019-05-03T14:45:04.586Z,16.2
2019-05-03T15:00:04.952Z,16.2
2019-05-03T15:15:05.286Z,16.3
2019-05-03T15:30:04.958Z,16.4
2019-05-03T15:45:05.258Z,16.4
2019-05-03T16:00:05.505Z,16.5
2019-05-03T16:15:04.726Z,16.5
2019-05-03T16:30:04.803Z,16.5
2019-05-03T17:00:05.641Z,16.6
2019-05-03T17:15:05.058Z,16.6
2019-05-03T17:30:04.684Z,16.6
2019-05-03T17:45:05.283Z,16.6
2019-05-03T18:00:04.627Z,16.6
2019-05-03T18:15:05.671Z,16.6
2019-05-03T18:30:04.816Z,16.5
2019-05-03T18:45:04.577Z,16.4
2019-05-03T19:00:07.876Z,16.3
2019-05-03T19:15:05.271Z,16.3
2019-05-03T19:30:04.713Z,16.3
2019-05-03T19:45:04.524Z,16.1
2019-05-03T20:00:05.502Z,16.1
2019-05-03T20:15:05.274Z,15.8
2019-05-03T20:30:05.742Z,15.7
2019-05-03T20:45:05.289Z,15.7
2019-05-03T21:00:04.659Z,15.6
2019-05-03T21:15:04.889Z,15.5
2019-05-03T21:30:04.681Z,15.5
2019-05-03T21:45:04.737Z,15.4
2019-05-03T22:00:05.470Z,15.5
2019-05-03T22:15:05.044Z,15.4
2019-05-03T22:30:04.113Z,15.5
2019-05-03T22:45:04.850Z,15.5
2019-05-03T23:00:06.248Z,15.5
2019-05-03T23:15:04.650Z,15.5
2019-05-03T23:30:04.995Z,15.4
2019-05-03T23:45:04.994Z,15.3
